createdAt,value
2022-08-19T00:02:00.409Z,3.47
2022-08-19T00:04:33.887Z,4.00
2022-08-19T00:07:00.843Z,3.25
2022-08-19T00:09:28.671Z,2.92
2022-08-19T00:11:56.388Z,3.88
2022-08-19T00:14:24.923Z,3.90
2022-08-19T00:16:55.124Z,3.85
2022-08-19T00:19:21.912Z,3.83
2022-08-19T00:21:48.239Z,3.20
2022-08-19T00:24:15.993Z,3.20
2022-08-19T00:26:43.694Z,3.50
2022-08-19T00:29:13.254Z,3.28
2022-08-19T00:31:40.293Z,3.35
2022-08-19T00:34:06.624Z,3.53
2022-08-19T00:36:33.961Z,2.70
2022-08-19T00:39:00.850Z,2.77
2022-08-19T00:41:27.759Z,2.78
2022-08-19T00:44:02.132Z,2.20
2022-08-19T00:46:29.015Z,2.70
2022-08-19T00:48:57.953Z,2.35
2022-08-19T00:51:28.071Z,2.53
2022-08-19T00:53:57.762Z,2.15
2022-08-19T00:56:24.895Z,1.60
2022-08-19T00:58:51.351Z,1.40
2022-08-19T01:01:17.777Z,1.52
2022-08-19T01:03:56.833Z,1.57
2022-08-19T01:06:26.666Z,1.73
2022-08-19T01:08:54.271Z,1.55
2022-08-19T01:11:20.765Z,2.10
2022-08-19T01:13:49.335Z,1.77
2022-08-19T01:16:18.648Z,1.97
2022-08-19T01:18:45.035Z,1.70
2022-08-19T01:21:32.054Z,1.20
2022-08-19T01:23:58.666Z,1.48
2022-08-19T01:26:26.531Z,1.80
2022-08-19T01:28:59.524Z,1.03
2022-08-19T01:31:33.239Z,1.63
2022-08-19T01:34:01.715Z,1.27
2022-08-19T01:36:30.292Z,0.98
2022-08-19T01:38:57.496Z,1.50
2022-08-19T01:41:24.408Z,1.70
2022-08-19T01:44:16.949Z,1.58
2022-08-19T01:46:40.201Z,1.10
2022-08-19T01:49:08.331Z,1.08
2022-08-19T01:51:39.973Z,0.90
2022-08-19T01:54:11.219Z,0.90
2022-08-19T01:56:37.618Z,0.90
2022-08-19T01:59:09.515Z,1.10
2022-08-19T02:01:36.312Z,0.60
2022-08-19T02:04:03.097Z,0.50
2022-08-19T02:06:30.700Z,0.70
2022-08-19T02:08:57.819Z,0.90
2022-08-19T02:11:28.535Z,0.85
2022-08-19T02:13:55.649Z,1.33
2022-08-19T02:16:22.672Z,0.80
2022-08-19T02:18:49.459Z,0.80
2022-08-19T02:21:18.679Z,0.75
2022-08-19T02:23:45.718Z,0.70
2022-08-19T02:26:13.298Z,0.90
2022-08-19T02:28:41.294Z,1.25
2022-08-19T02:31:16.427Z,1.00
2022-08-19T02:33:42.835Z,1.38
2022-08-19T02:36:10.782Z,1.20
2022-08-19T02:38:38.019Z,1.73
2022-08-19T02:41:12.587Z,2.03
2022-08-19T02:43:39.609Z,3.13
2022-08-19T02:46:22.052Z,3.53
2022-08-19T02:48:53.513Z,4.22
2022-08-19T02:51:31.772Z,3.90
2022-08-19T02:53:59.214Z,4.10
2022-08-19T02:56:27.294Z,4.67
2022-08-19T02:58:55.227Z,4.30
2022-08-19T03:01:28.748Z,3.30
2022-08-19T03:03:56.368Z,2.80
2022-08-19T03:06:23.647Z,4.45
2022-08-19T03:08:51.748Z,5.13
2022-08-19T03:11:22.745Z,5.28
2022-08-19T03:13:51.655Z,4.95
2022-08-19T03:16:20.383Z,6.38
2022-08-19T03:18:47.061Z,5.10
2022-08-19T03:21:30.935Z,4.57
2022-08-19T03:24:00.497Z,5.63
2022-08-19T03:26:27.293Z,5.95
2022-08-19T03:28:58.349Z,6.07
2022-08-19T03:31:45.709Z,5.93
2022-08-19T03:34:21.821Z,5.27
2022-08-19T03:36:48.997Z,6.38
2022-08-19T03:39:15.556Z,5.57
2022-08-19T03:41:46.292Z,4.85
2022-08-19T03:44:18.353Z,4.28
2022-08-19T03:46:50.011Z,3.87
2022-08-19T03:49:18.269Z,3.40
2022-08-19T03:51:46.079Z,3.72
2022-08-19T03:54:14.673Z,3.83
2022-08-19T03:56:43.476Z,3.65
2022-08-19T03:59:14.402Z,3.43
2022-08-19T04:01:41.023Z,2.88
2022-08-19T04:04:07.811Z,3.45
2022-08-19T04:06:39.904Z,2.85
2022-08-19T04:09:10.669Z,3.40
2022-08-19T04:11:54.690Z,2.63
2022-08-19T04:14:24.926Z,2.45
2022-08-19T04:16:52.401Z,2.75
2022-08-19T04:19:20.423Z,4.05
2022-08-19T04:21:50.854Z,3.47
2022-08-19T04:24:17.476Z,2.73
2022-08-19T04:26:44.740Z,3.58
2022-08-19T04:29:18.029Z,3.25
2022-08-19T04:31:46.045Z,2.75
2022-08-19T04:34:14.968Z,2.88
2022-08-19T04:36:43.273Z,2.10
2022-08-19T04:39:13.411Z,1.85
2022-08-19T04:41:58.442Z,1.95
2022-08-19T04:44:24.952Z,1.83
2022-08-19T04:46:52.309Z,3.17
2022-08-19T04:49:22.704Z,2.63
2022-08-19T04:51:50.687Z,2.92
2022-08-19T04:54:21.370Z,3.22
2022-08-19T04:57:07.497Z,2.55
2022-08-19T04:59:34.423Z,2.85
2022-08-19T05:02:00.856Z,2.87
2022-08-19T05:04:27.227Z,3.08
2022-08-19T05:06:56.973Z,2.13
2022-08-19T05:09:52.635Z,2.25
2022-08-19T05:12:16.404Z,3.20
2022-08-19T05:14:42.751Z,2.90
2022-08-19T05:17:26.639Z,3.33
2022-08-19T05:20:13.107Z,3.17
2022-08-19T05:22:39.749Z,3.67
2022-08-19T05:25:13.159Z,3.47
2022-08-19T05:27:40.515Z,3.77
2022-08-19T05:30:07.539Z,2.80
2022-08-19T05:32:33.949Z,2.53
2022-08-19T05:35:00.364Z,2.67
2022-08-19T05:37:28.557Z,2.90
2022-08-19T05:39:55.686Z,2.63
2022-08-19T05:42:23.827Z,2.85
2022-08-19T05:44:51.507Z,2.78
2022-08-19T05:47:20.473Z,2.97
2022-08-19T05:49:47.388Z,3.05
2022-08-19T05:52:19.445Z,3.50
2022-08-19T05:54:52.012Z,4.53
2022-08-19T05:57:20.247Z,5.30
2022-08-19T05:59:49.291Z,4.85
2022-08-19T06:02:18.223Z,5.03
2022-08-19T06:04:44.724Z,6.40
2022-08-19T06:07:12.117Z,5.93
2022-08-19T06:09:40.101Z,6.45
2022-08-19T06:12:07.443Z,6.53
2022-08-19T06:14:40.162Z,7.07
2022-08-19T06:17:08.059Z,9.57
2022-08-19T06:19:34.645Z,10.57
2022-08-19T06:22:07.553Z,13.38
2022-08-19T06:24:33.906Z,11.77
2022-08-19T06:27:01.431Z,10.57
2022-08-19T06:29:28.981Z,11.60
2022-08-19T06:31:57.399Z,11.20
2022-08-19T06:34:23.928Z,13.30
2022-08-19T06:36:52.815Z,14.93
2022-08-19T06:39:25.562Z,15.38
2022-08-19T06:41:59.658Z,17.03
2022-08-19T06:44:30.450Z,19.08
2022-08-19T06:46:58.332Z,19.95
2022-08-19T06:49:25.995Z,22.65
2022-08-19T06:51:52.343Z,25.40
2022-08-19T06:54:20.388Z,24.93
2022-08-19T06:56:47.753Z,24.25
2022-08-19T06:59:22.165Z,25.60
2022-08-19T07:01:51.579Z,23.58
2022-08-19T07:04:21.610Z,23.88
2022-08-19T07:06:54.981Z,23.10
2022-08-19T07:09:22.101Z,24.45
2022-08-19T07:11:53.210Z,23.33
2022-08-19T07:14:21.897Z,23.15
2022-08-19T07:16:50.087Z,25.65
2022-08-19T07:19:19.244Z,27.40
2022-08-19T07:21:48.270Z,27.67
2022-08-19T07:24:16.181Z,29.08
2022-08-19T07:26:44.198Z,28.20
2022-08-19T07:29:12.854Z,29.75
2022-08-19T07:31:40.475Z,28.53
2022-08-19T07:34:14.241Z,29.15
2022-08-19T07:36:42.294Z,30.05
2022-08-19T07:39:13.086Z,29.25
2022-08-19T07:41:40.141Z,28.80
2022-08-19T07:44:08.248Z,28.93
2022-08-19T07:46:38.364Z,29.77
2022-08-19T07:49:07.472Z,30.25
2022-08-19T07:51:36.747Z,29.33
2022-08-19T07:54:04.222Z,28.42
2022-08-19T07:56:30.650Z,27.47
2022-08-19T08:01:29.069Z,28.45
2022-08-19T08:04:16.100Z,24.98
2022-08-19T08:07:02.070Z,24.63
2022-08-19T08:09:33.382Z,23.00
2022-08-19T08:12:33.103Z,22.60
2022-08-19T08:14:56.179Z,22.25
2022-08-19T08:17:31.155Z,20.95
2022-08-19T08:20:13.773Z,21.17
2022-08-19T08:23:03.344Z,20.07
2022-08-19T08:25:32.509Z,20.38
2022-08-19T08:28:01.082Z,19.00
2022-08-19T08:30:31.087Z,20.50
2022-08-19T08:32:59.788Z,19.40
2022-08-19T08:35:26.308Z,19.03
2022-08-19T08:37:55.318Z,17.58
2022-08-19T08:40:21.860Z,18.88
2022-08-19T08:42:56.713Z,17.58
2022-08-19T08:45:25.124Z,17.88
2022-08-19T08:47:55.139Z,17.20
2022-08-19T08:50:36.480Z,17.02
2022-08-19T08:53:06.591Z,16.92
2022-08-19T08:55:36.778Z,17.95
2022-08-19T08:58:14.871Z,16.65
2022-08-19T09:00:46.038Z,16.17
2022-08-19T09:03:20.147Z,14.60
2022-08-19T09:05:56.076Z,16.25
2022-08-19T09:08:34.225Z,15.80
2022-08-19T09:11:05.516Z,14.88
2022-08-19T09:13:50.511Z,14.00
2022-08-19T09:16:21.804Z,14.10
2022-08-19T09:18:59.793Z,13.88
2022-08-19T09:21:33.233Z,14.05
2022-08-19T09:24:00.940Z,13.55
2022-08-19T09:26:47.147Z,13.27
2022-08-19T09:29:15.245Z,12.60
2022-08-19T09:31:41.907Z,13.27
2022-08-19T09:34:09.322Z,13.63
2022-08-19T09:36:48.019Z,12.50
2022-08-19T09:39:16.146Z,11.70
2022-08-19T09:41:43.020Z,13.05
2022-08-19T09:44:14.067Z,13.45
2022-08-19T09:46:40.475Z,11.73
2022-08-19T09:49:07.267Z,12.30
2022-08-19T09:51:35.121Z,11.67
2022-08-19T09:54:04.671Z,11.13
2022-08-19T09:56:32.823Z,12.80
2022-08-19T09:59:02.457Z,13.00
2022-08-19T10:01:32.846Z,11.48
2022-08-19T10:04:02.934Z,10.20
2022-08-19T10:06:45.636Z,8.93
2022-08-19T10:09:13.166Z,8.52
2022-08-19T10:11:54.706Z,9.23
2022-08-19T10:14:24.434Z,9.90
2022-08-19T10:16:51.584Z,9.43
2022-08-19T10:19:25.484Z,10.05
2022-08-19T10:21:53.606Z,9.63
2022-08-19T10:24:21.462Z,10.80
2022-08-19T10:26:55.780Z,12.23
2022-08-19T10:29:32.314Z,10.17
2022-08-19T10:32:02.307Z,10.98
2022-08-19T10:34:30.757Z,10.25
2022-08-19T10:37:01.191Z,11.85
2022-08-19T10:39:31.361Z,12.05
2022-08-19T10:41:59.127Z,11.03
2022-08-19T10:44:32.615Z,11.70
2022-08-19T10:46:59.995Z,12.27
2022-08-19T10:49:26.969Z,11.85
2022-08-19T10:52:19.086Z,11.75
2022-08-19T10:55:08.224Z,12.03
2022-08-19T11:00:24.277Z,12.38
2022-08-19T11:02:51.249Z,13.13
2022-08-19T11:05:18.688Z,15.57
2022-08-19T11:07:46.260Z,15.13
2022-08-19T11:10:20.852Z,14.55
2022-08-19T11:12:48.116Z,16.10
2022-08-19T11:15:14.742Z,14.60
2022-08-19T11:17:44.349Z,14.65
2022-08-19T11:20:13.112Z,13.87
2022-08-19T11:22:41.814Z,16.27
2022-08-19T11:25:11.316Z,16.80
2022-08-19T11:27:45.658Z,17.17
2022-08-19T11:30:13.930Z,18.08
2022-08-19T11:32:47.094Z,16.53
2022-08-19T11:35:15.490Z,18.20
2022-08-19T11:37:42.052Z,17.58
2022-08-19T11:40:09.500Z,17.27
2022-08-19T11:42:54.857Z,17.23
2022-08-19T11:45:22.080Z,16.00
2022-08-19T11:47:48.833Z,17.35
2022-08-19T11:50:16.556Z,17.95
2022-08-19T11:52:43.608Z,16.85
2022-08-19T11:55:10.595Z,18.35
2022-08-19T11:57:37.015Z,17.53
2022-08-19T12:00:05.610Z,16.65
2022-08-19T12:02:32.107Z,15.75
2022-08-19T12:04:58.644Z,18.33
2022-08-19T12:07:25.763Z,16.50
2022-08-19T12:09:52.291Z,17.03
2022-08-19T12:12:18.808Z,18.10
2022-08-19T12:14:45.464Z,18.38
2022-08-19T12:17:14.403Z,18.80
2022-08-19T12:19:40.938Z,17.50
2022-08-19T12:22:08.615Z,17.17
2022-08-19T12:24:35.805Z,16.83
2022-08-19T12:27:03.059Z,17.27
2022-08-19T12:29:30.718Z,15.50
2022-08-19T12:32:03.910Z,15.18
2022-08-19T12:34:31.979Z,13.97
2022-08-19T12:37:01.756Z,13.13
2022-08-19T12:39:28.220Z,15.52
2022-08-19T12:41:55.234Z,16.58
2022-08-19T12:44:28.957Z,15.68
2022-08-19T12:46:56.505Z,15.60
2022-08-19T12:49:43.574Z,15.00
2022-08-19T12:52:10.055Z,14.20
2022-08-19T12:54:37.508Z,14.35
2022-08-19T12:57:08.876Z,12.80
2022-08-19T12:59:37.269Z,12.70
2022-08-19T13:02:07.810Z,10.63
2022-08-19T13:04:41.687Z,11.70
2022-08-19T13:07:10.057Z,11.02
2022-08-19T13:09:36.649Z,11.40
2022-08-19T13:12:08.048Z,12.63
2022-08-19T13:14:35.910Z,12.70
2022-08-19T13:17:03.823Z,12.27
2022-08-19T13:19:31.323Z,13.30
2022-08-19T13:22:00.344Z,12.07
2022-08-19T13:24:27.667Z,11.67
2022-08-19T13:27:01.543Z,12.85
2022-08-19T13:29:46.727Z,12.00
2022-08-19T13:32:31.798Z,11.15
2022-08-19T13:34:58.527Z,10.18
2022-08-19T13:37:43.228Z,10.70
2022-08-19T13:40:18.008Z,10.90
2022-08-19T13:42:47.287Z,11.43
2022-08-19T13:45:16.268Z,11.80
2022-08-19T13:47:45.825Z,11.60
2022-08-19T13:50:14.506Z,12.33
2022-08-19T13:52:41.452Z,12.27
2022-08-19T13:55:09.026Z,13.45
2022-08-19T13:57:36.205Z,13.60
2022-08-19T14:00:04.668Z,13.77
2022-08-19T14:02:31.026Z,12.93
2022-08-19T14:04:57.380Z,8.00
2022-08-19T14:07:24.538Z,5.10
2022-08-19T14:09:51.614Z,5.97
2022-08-19T14:12:28.614Z,5.38
2022-08-19T14:14:55.742Z,4.50
2022-08-19T14:17:22.454Z,5.35
2022-08-19T14:19:48.991Z,5.28
2022-08-19T14:22:15.550Z,5.55
2022-08-19T14:24:48.888Z,6.22
2022-08-19T14:27:15.742Z,7.13
2022-08-19T14:29:42.110Z,9.68
2022-08-19T14:32:08.495Z,9.18
2022-08-19T14:34:38.296Z,9.40
2022-08-19T14:37:04.933Z,9.02
2022-08-19T14:39:31.307Z,8.80
2022-08-19T14:41:59.563Z,9.82
2022-08-19T14:44:27.103Z,9.43
2022-08-19T14:46:54.234Z,9.90
2022-08-19T14:49:20.994Z,8.77
2022-08-19T14:51:58.346Z,8.77
2022-08-19T14:54:24.710Z,9.52
2022-08-19T14:56:53.693Z,9.88
2022-08-19T14:59:20.111Z,8.60
2022-08-19T15:01:46.617Z,7.50
2022-08-19T15:04:12.979Z,7.77
2022-08-19T15:06:39.928Z,7.70
2022-08-19T15:09:06.684Z,6.35
2022-08-19T15:11:33.674Z,5.75
2022-08-19T15:14:00.841Z,5.82
2022-08-19T15:16:27.879Z,4.83
2022-08-19T15:18:59.821Z,5.15
2022-08-19T15:21:27.684Z,4.63
2022-08-19T15:23:55.721Z,5.13
2022-08-19T15:26:22.172Z,5.80
2022-08-19T15:28:48.902Z,6.00
2022-08-19T15:31:28.273Z,5.50
2022-08-19T15:33:58.584Z,4.90
2022-08-19T15:36:26.102Z,4.78
2022-08-19T15:38:53.178Z,4.20
2022-08-19T15:41:25.403Z,4.13
2022-08-19T15:43:55.417Z,4.93
2022-08-19T15:46:24.811Z,4.72
2022-08-19T15:48:56.120Z,4.28
2022-08-19T15:51:30.210Z,4.95
2022-08-19T15:53:57.916Z,4.00
2022-08-19T15:56:27.217Z,3.85
2022-08-19T15:59:12.442Z,3.65
2022-08-19T16:01:57.389Z,3.55
2022-08-19T16:04:42.248Z,3.60
2022-08-19T16:07:10.174Z,4.10
2022-08-19T16:09:36.538Z,3.80
2022-08-19T16:12:05.131Z,4.30
2022-08-19T16:14:34.895Z,4.28
2022-08-19T16:17:01.849Z,4.18
2022-08-19T16:19:28.217Z,4.27
2022-08-19T16:21:56.744Z,4.60
2022-08-19T16:24:26.946Z,4.57
2022-08-19T16:26:54.394Z,4.97
2022-08-19T16:29:33.545Z,5.32
2022-08-19T16:32:05.423Z,5.23
2022-08-19T16:34:33.718Z,5.22
2022-08-19T16:37:00.324Z,5.38
2022-08-19T16:39:26.907Z,5.38
2022-08-19T16:41:53.255Z,4.40
2022-08-19T16:44:20.887Z,4.83
2022-08-19T16:46:54.797Z,4.82
2022-08-19T16:49:52.870Z,4.93
2022-08-19T16:52:12.918Z,4.57
2022-08-19T16:54:41.818Z,5.28
2022-08-19T16:57:11.892Z,5.00
2022-08-19T16:59:39.635Z,4.50
2022-08-19T17:02:15.154Z,5.03
2022-08-19T17:04:41.567Z,6.18
2022-08-19T17:07:09.947Z,7.25
2022-08-19T17:09:36.882Z,7.03
2022-08-19T17:12:04.648Z,7.45
2022-08-19T17:14:31.000Z,6.57
2022-08-19T17:16:57.413Z,7.40
2022-08-19T17:19:24.811Z,7.35
2022-08-19T17:21:51.554Z,7.60
2022-08-19T17:24:17.935Z,7.45
2022-08-19T17:26:44.353Z,4.93
2022-08-19T17:29:10.743Z,4.88
2022-08-19T17:31:37.268Z,4.65
2022-08-19T17:34:04.589Z,3.97
2022-08-19T17:36:33.365Z,4.30
2022-08-19T17:39:02.370Z,4.50
2022-08-19T17:41:30.349Z,4.00
2022-08-19T17:43:56.807Z,3.80
2022-08-19T17:46:23.145Z,3.07
2022-08-19T17:48:52.692Z,3.20
2022-08-19T17:51:22.486Z,2.70
2022-08-19T17:53:51.365Z,3.28
2022-08-19T17:56:18.587Z,3.20
2022-08-19T17:58:51.123Z,3.17
2022-08-19T18:01:26.837Z,3.63
2022-08-19T18:03:55.822Z,3.25
2022-08-19T18:06:22.950Z,3.40
2022-08-19T18:08:49.428Z,4.18
2022-08-19T18:11:16.795Z,3.80
2022-08-19T18:13:43.411Z,3.25
2022-08-19T18:16:12.274Z,3.30
2022-08-19T18:18:40.637Z,3.17
2022-08-19T18:21:08.354Z,2.97
2022-08-19T18:23:45.008Z,2.40
2022-08-19T18:26:12.628Z,2.65
2022-08-19T18:28:39.759Z,2.63
2022-08-19T18:31:16.699Z,2.55
2022-08-19T18:33:44.695Z,2.30
2022-08-19T18:36:11.768Z,1.93
2022-08-19T18:38:56.934Z,1.92
2022-08-19T18:41:42.161Z,2.17
2022-08-19T18:44:28.433Z,1.52
2022-08-19T18:47:13.234Z,1.55
2022-08-19T18:49:39.606Z,1.20
2022-08-19T18:52:06.224Z,1.10
2022-08-19T18:54:33.030Z,1.00
2022-08-19T18:56:59.526Z,0.73
2022-08-19T18:59:28.035Z,0.70
2022-08-19T19:01:57.095Z,0.90
2022-08-19T19:04:27.219Z,0.98
2022-08-19T19:06:54.617Z,0.68
2022-08-19T19:09:23.426Z,0.73
2022-08-19T19:11:53.828Z,0.80
2022-08-19T19:14:47.593Z,0.80
2022-08-19T19:17:14.480Z,0.90
2022-08-19T19:19:42.812Z,1.00
2022-08-19T19:22:17.172Z,0.93
2022-08-19T19:24:46.508Z,0.85
2022-08-19T19:27:15.730Z,0.73
2022-08-19T19:29:43.471Z,0.90
2022-08-19T19:32:18.994Z,0.70
2022-08-19T19:34:45.555Z,0.82
2022-08-19T19:37:12.102Z,0.73
2022-08-19T19:39:46.347Z,0.40
2022-08-19T19:42:19.618Z,0.82
2022-08-19T19:44:50.371Z,0.80
2022-08-19T19:47:18.559Z,0.75
2022-08-19T19:50:10.555Z,0.90
2022-08-19T19:52:32.856Z,0.67
2022-08-19T19:54:59.797Z,0.70
2022-08-19T19:57:26.670Z,1.00
2022-08-19T19:59:54.079Z,1.05
2022-08-19T20:02:21.914Z,1.02
2022-08-19T20:04:48.778Z,1.00
2022-08-19T20:07:15.294Z,0.88
2022-08-19T20:09:58.705Z,1.00
2022-08-19T20:12:26.387Z,0.80
2022-08-19T20:14:52.746Z,1.40
2022-08-19T20:17:20.641Z,0.90
2022-08-19T20:19:47.664Z,0.80
2022-08-19T20:22:14.252Z,1.38
2022-08-19T20:24:42.303Z,1.30
2022-08-19T20:27:09.136Z,2.13
2022-08-19T20:29:38.883Z,2.03
2022-08-19T20:32:06.839Z,2.08
2022-08-19T20:34:33.725Z,1.83
2022-08-19T20:37:00.172Z,2.13
2022-08-19T20:39:26.620Z,2.10
2022-08-19T20:41:53.222Z,2.13
2022-08-19T20:44:19.843Z,1.88
2022-08-19T20:46:54.539Z,2.60
2022-08-19T20:49:22.979Z,2.42
2022-08-19T20:51:54.517Z,2.95
2022-08-19T20:54:20.979Z,2.70
2022-08-19T20:56:47.363Z,3.10
2022-08-19T20:59:13.716Z,2.75
2022-08-19T21:01:40.105Z,3.00
2022-08-19T21:04:06.519Z,3.47
2022-08-19T21:06:32.928Z,2.77
2022-08-19T21:08:59.302Z,3.22
2022-08-19T21:11:25.839Z,3.90
2022-08-19T21:13:52.260Z,2.88
2022-08-19T21:16:18.707Z,3.33
2022-08-19T21:18:45.168Z,3.33
2022-08-19T21:21:11.586Z,3.00
2022-08-19T21:23:38.000Z,3.45
2022-08-19T21:26:04.505Z,3.35
2022-08-19T21:28:35.960Z,3.22
2022-08-19T21:31:05.245Z,2.60
2022-08-19T21:33:32.260Z,3.28
2022-08-19T21:36:00.154Z,3.78
2022-08-19T21:38:27.408Z,3.60
2022-08-19T21:40:53.860Z,3.45
2022-08-19T21:43:20.228Z,3.50
2022-08-19T21:45:47.672Z,3.15
2022-08-19T21:48:14.770Z,3.38
2022-08-19T21:50:42.586Z,3.60
2022-08-19T21:53:11.831Z,3.72
2022-08-19T21:55:39.002Z,3.77
2022-08-19T21:58:05.480Z,3.67
2022-08-19T22:00:34.011Z,4.05
2022-08-19T22:03:01.301Z,3.75
2022-08-19T22:05:28.224Z,3.97
2022-08-19T22:07:59.816Z,4.37
2022-08-19T22:10:32.762Z,3.33
2022-08-19T22:12:59.211Z,4.28
2022-08-19T22:15:29.694Z,4.68
2022-08-19T22:17:58.387Z,4.53
2022-08-19T22:20:28.327Z,4.33
2022-08-19T22:23:00.786Z,4.18
2022-08-19T22:25:31.943Z,4.40
2022-08-19T22:28:01.570Z,4.15
2022-08-19T22:30:29.169Z,4.47
2022-08-19T22:33:02.328Z,4.87
2022-08-19T22:35:32.517Z,4.70
2022-08-19T22:37:59.577Z,4.32
2022-08-19T22:40:30.456Z,4.55
2022-08-19T22:43:11.992Z,4.63
2022-08-19T22:45:38.928Z,4.63
2022-08-19T22:48:10.160Z,4.80
2022-08-19T22:50:38.513Z,4.32
2022-08-19T22:53:07.392Z,4.40
2022-08-19T22:55:35.867Z,4.43
2022-08-19T22:58:02.307Z,4.47
2022-08-19T23:00:30.222Z,4.28
2022-08-19T23:02:57.710Z,4.72
2022-08-19T23:05:26.705Z,5.03
2022-08-19T23:07:54.171Z,5.00
2022-08-19T23:10:27.606Z,4.33
2022-08-19T23:12:56.883Z,4.80
2022-08-19T23:15:26.867Z,4.07
2022-08-19T23:17:55.283Z,4.47
2022-08-19T23:20:26.893Z,5.13
2022-08-19T23:22:54.450Z,4.57
2022-08-19T23:25:24.294Z,4.50
2022-08-19T23:28:09.616Z,5.43
2022-08-19T23:30:40.910Z,4.97
2022-08-19T23:33:15.909Z,5.70
2022-08-19T23:35:42.409Z,5.30
2022-08-19T23:38:09.744Z,5.90
2022-08-19T23:40:38.395Z,5.63
2022-08-19T23:43:08.228Z,5.72
2022-08-19T23:45:40.418Z,5.90
2022-08-19T23:48:07.936Z,6.23
2022-08-19T23:50:35.328Z,5.75
2022-08-19T23:53:01.965Z,6.40
2022-08-19T23:55:31.356Z,5.70
2022-08-19T23:57:58.287Z,6.35
